createdAt,value
2023-04-17T00:01:27.858Z,99.90
2023-04-17T00:03:54.663Z,99.90
2023-04-17T00:06:21.415Z,99.90
2023-04-17T00:08:48.122Z,99.90
2023-04-17T00:11:15.262Z,99.90
2023-04-17T00:13:43.989Z,99.90
2023-04-17T00:16:12.607Z,99.90
2023-04-17T00:18:40.111Z,99.90
2023-04-17T00:21:06.757Z,99.90
2023-04-17T00:23:33.450Z,99.90
2023-04-17T00:26:00.113Z,99.90
2023-04-17T00:28:27.676Z,99.90
2023-04-17T00:30:54.965Z,99.90
2023-04-17T00:33:21.798Z,99.90
2023-04-17T00:35:48.511Z,99.90
2023-04-17T00:38:15.689Z,99.90
2023-04-17T00:40:42.801Z,99.90
2023-04-17T00:43:09.645Z,99.90
2023-04-17T00:45:36.400Z,99.90
2023-04-17T00:48:05.718Z,99.90
2023-04-17T00:50:32.976Z,99.90
2023-04-17T00:53:00.764Z,99.90
2023-04-17T00:55:32.234Z,99.90
2023-04-17T00:58:00.492Z,99.90
2023-04-17T01:00:27.765Z,99.90
2023-04-17T01:02:57.256Z,99.90
2023-04-17T01:05:25.662Z,99.90
2023-04-17T01:07:52.591Z,99.90
2023-04-17T01:10:19.677Z,99.90
2023-04-17T01:12:49.113Z,99.90
2023-04-17T01:15:16.306Z,99.90
2023-04-17T01:17:43.039Z,99.90
2023-04-17T01:20:11.959Z,99.90
2023-04-17T01:22:38.616Z,99.90
2023-04-17T01:25:05.997Z,99.90
2023-04-17T01:27:35.845Z,99.90
2023-04-17T01:30:02.722Z,99.90
2023-04-17T01:32:32.432Z,99.90
2023-04-17T01:34:59.950Z,99.90
2023-04-17T01:37:27.280Z,99.90
2023-04-17T01:39:55.510Z,99.90
2023-04-17T01:42:22.433Z,99.90
2023-04-17T01:44:49.098Z,99.90
2023-04-17T01:47:15.847Z,99.90
2023-04-17T01:49:44.686Z,99.90
2023-04-17T01:52:11.336Z,99.90
2023-04-17T01:54:37.953Z,99.90
2023-04-17T01:57:04.651Z,99.90
2023-04-17T01:59:31.321Z,99.90
2023-04-17T02:01:58.122Z,99.90
2023-04-17T02:04:24.955Z,99.90
2023-04-17T02:06:52.270Z,99.90
2023-04-17T02:09:19.030Z,99.90
2023-04-17T02:11:45.764Z,99.90
2023-04-17T02:14:12.418Z,99.90
2023-04-17T02:16:39.931Z,99.90
2023-04-17T02:19:06.596Z,99.90
2023-04-17T02:21:33.257Z,99.90
2023-04-17T02:23:59.936Z,99.90
2023-04-17T02:26:28.166Z,99.90
2023-04-17T02:28:55.002Z,99.90
2023-04-17T02:31:22.131Z,99.90
2023-04-17T02:33:48.858Z,99.90
2023-04-17T02:36:16.666Z,99.90
2023-04-17T02:38:44.684Z,99.90
2023-04-17T02:41:13.241Z,99.90
2023-04-17T02:43:40.838Z,99.90
2023-04-17T02:46:07.496Z,99.90
2023-04-17T02:48:34.226Z,99.90
2023-04-17T02:51:00.933Z,99.90
2023-04-17T02:53:29.207Z,99.90
2023-04-17T02:55:55.878Z,99.90
2023-04-17T02:58:24.326Z,99.90
2023-04-17T03:00:51.227Z,99.90
2023-04-17T03:03:19.390Z,99.90
2023-04-17T03:05:46.419Z,99.90
2023-04-17T03:08:13.061Z,99.90
2023-04-17T03:10:44.878Z,99.90
2023-04-17T03:13:11.900Z,99.90
2023-04-17T03:15:38.570Z,99.90
2023-04-17T03:18:05.443Z,99.90
2023-04-17T03:20:32.423Z,99.90
2023-04-17T03:22:59.095Z,99.90
2023-04-17T03:25:26.128Z,99.90
2023-04-17T03:27:53.264Z,99.90
2023-04-17T03:30:24.015Z,99.90
2023-04-17T03:32:52.522Z,99.90
2023-04-17T03:35:19.273Z,99.90
2023-04-17T03:37:46.014Z,99.90
2023-04-17T03:40:13.744Z,99.90
2023-04-17T03:42:43.603Z,99.90
2023-04-17T03:45:11.021Z,99.90
2023-04-17T03:47:38.535Z,99.90
2023-04-17T03:50:06.490Z,99.90
2023-04-17T03:52:38.644Z,99.90
2023-04-17T03:55:06.286Z,99.90
2023-04-17T03:57:33.158Z,99.90
2023-04-17T03:59:59.925Z,99.90
2023-04-17T04:02:34.539Z,99.90
2023-04-17T04:05:02.277Z,99.90
2023-04-17T04:07:29.530Z,99.90
2023-04-17T04:09:56.667Z,99.90
2023-04-17T04:12:23.828Z,99.90
2023-04-17T04:14:50.561Z,99.90
2023-04-17T04:17:17.891Z,99.90
2023-04-17T04:19:44.658Z,99.90
2023-04-17T04:22:13.647Z,99.90
2023-04-17T04:24:53.686Z,99.90
2023-04-17T04:27:27.536Z,99.90
2023-04-17T04:29:59.041Z,99.90
2023-04-17T04:32:28.409Z,99.90
2023-04-17T04:34:58.309Z,99.90
2023-04-17T04:37:29.991Z,99.90
2023-04-17T04:40:10.597Z,99.90
2023-04-17T04:42:42.013Z,99.90
2023-04-17T04:45:18.714Z,99.90
2023-04-17T04:47:46.090Z,99.90
2023-04-17T04:50:13.174Z,99.90
2023-04-17T04:52:40.698Z,99.90
2023-04-17T04:55:30.597Z,99.90
2023-04-17T04:57:57.608Z,99.90
2023-04-17T05:00:26.302Z,99.90
2023-04-17T05:02:56.155Z,99.90
2023-04-17T05:05:25.429Z,99.90
2023-04-17T05:07:54.893Z,99.90
2023-04-17T05:10:24.465Z,99.90
2023-04-17T05:12:56.693Z,99.90
2023-04-17T05:15:23.494Z,99.90
2023-04-17T05:17:50.580Z,99.90
2023-04-17T05:20:18.771Z,99.90
2023-04-17T05:22:50.109Z,99.90
2023-04-17T05:25:16.969Z,99.90
2023-04-17T05:27:43.753Z,99.90
2023-04-17T05:30:12.634Z,99.90
2023-04-17T05:32:41.090Z,99.90
2023-04-17T05:35:23.172Z,99.90
2023-04-17T05:37:51.133Z,99.90
2023-04-17T05:40:18.098Z,99.90
2023-04-17T05:42:44.899Z,99.90
2023-04-17T05:45:18.337Z,99.90
2023-04-17T05:47:45.486Z,99.90
2023-04-17T05:50:12.348Z,99.90
2023-04-17T05:52:39.941Z,99.90
2023-04-17T05:55:09.735Z,99.90
2023-04-17T05:57:37.341Z,99.90
2023-04-17T06:00:10.439Z,99.90
2023-04-17T06:02:43.121Z,99.90
2023-04-17T06:05:16.409Z,99.90
2023-04-17T06:07:44.051Z,99.90
2023-04-17T06:10:10.972Z,99.90
2023-04-17T06:12:43.553Z,99.90
2023-04-17T06:15:12.476Z,99.90
2023-04-17T06:17:40.024Z,99.90
2023-04-17T06:20:10.453Z,99.90
2023-04-17T06:22:38.385Z,99.90
2023-04-17T06:25:05.721Z,99.90
2023-04-17T06:27:33.867Z,99.90
2023-04-17T06:30:03.492Z,99.90
2023-04-17T06:32:33.956Z,99.90
2023-04-17T06:35:01.014Z,99.90
2023-04-17T06:37:42.994Z,99.90
2023-04-17T06:40:12.251Z,99.90
2023-04-17T06:42:39.932Z,99.90
2023-04-17T06:45:11.747Z,99.90
2023-04-17T06:47:38.482Z,99.90
2023-04-17T06:50:06.152Z,99.90
2023-04-17T06:52:34.478Z,99.90
2023-04-17T06:55:02.276Z,99.90
2023-04-17T06:57:29.127Z,99.90
2023-04-17T06:59:55.753Z,99.90
2023-04-17T07:02:22.583Z,99.90
2023-04-17T07:04:49.613Z,99.90
2023-04-17T07:07:16.440Z,99.90
2023-04-17T07:09:44.036Z,99.90
2023-04-17T07:12:10.858Z,99.90
2023-04-17T07:14:38.247Z,99.90
2023-04-17T07:17:05.924Z,99.60
2023-04-17T07:19:35.697Z,98.40
2023-04-17T07:22:02.675Z,97.40
2023-04-17T07:24:29.367Z,81.70
2023-04-17T07:26:56.954Z,84.50
2023-04-17T07:29:23.630Z,85.00
2023-04-17T07:31:50.581Z,83.50
2023-04-17T07:34:17.252Z,74.10
2023-04-17T07:36:44.154Z,56.50
2023-04-17T07:39:11.065Z,57.10
2023-04-17T07:41:38.555Z,50.90
2023-04-17T07:44:06.044Z,43.80
2023-04-17T07:46:32.906Z,39.90
2023-04-17T07:48:59.638Z,42.50
2023-04-17T07:51:26.352Z,63.70
2023-04-17T07:53:53.225Z,35.40
2023-04-17T07:56:19.903Z,27.90
2023-04-17T07:58:46.565Z,23.10
2023-04-17T08:01:13.572Z,17.40
2023-04-17T08:03:41.570Z,4.60
2023-04-17T08:06:08.697Z,2.20
2023-04-17T08:08:35.445Z,5.00
2023-04-17T08:11:02.562Z,1.00
2023-04-17T08:13:32.514Z,1.00
2023-04-17T08:15:59.564Z,1.00
2023-04-17T08:18:26.293Z,1.00
2023-04-17T08:20:53.100Z,1.00
2023-04-17T08:23:19.837Z,1.00
2023-04-17T08:25:46.676Z,1.00
2023-04-17T08:28:13.388Z,1.00
2023-04-17T08:30:40.049Z,1.00
2023-04-17T08:33:06.836Z,1.00
2023-04-17T08:35:33.596Z,1.00
2023-04-17T08:38:00.377Z,1.00
2023-04-17T08:40:27.900Z,1.00
2023-04-17T08:42:54.638Z,1.00
2023-04-17T08:45:24.248Z,1.00
2023-04-17T08:47:51.201Z,1.00
2023-04-17T08:50:19.662Z,1.00
2023-04-17T08:52:48.982Z,1.00
2023-04-17T08:55:18.128Z,1.00
2023-04-17T08:58:03.509Z,1.00
2023-04-17T09:00:35.088Z,1.00
2023-04-17T09:03:04.916Z,1.00
2023-04-17T09:05:38.722Z,1.00
2023-04-17T09:08:20.688Z,1.00
2023-04-17T09:10:52.765Z,1.00
2023-04-17T09:13:25.557Z,1.00
2023-04-17T09:16:06.099Z,1.00
2023-04-17T09:18:34.312Z,1.00
2023-04-17T09:21:02.142Z,1.00
2023-04-17T09:23:31.114Z,1.00
2023-04-17T09:26:15.024Z,1.00
2023-04-17T09:28:59.644Z,1.00
2023-04-17T09:31:28.145Z,1.00
2023-04-17T09:34:08.267Z,1.00
2023-04-17T09:36:39.595Z,1.00
2023-04-17T09:39:25.545Z,1.00
2023-04-17T09:42:03.787Z,1.00
2023-04-17T09:44:31.135Z,1.00
2023-04-17T09:46:58.762Z,1.00
2023-04-17T09:49:37.589Z,1.00
2023-04-17T09:52:04.373Z,1.00
2023-04-17T09:54:31.294Z,1.00
2023-04-17T09:57:00.531Z,1.00
2023-04-17T09:59:28.693Z,1.00
2023-04-17T10:01:55.649Z,1.00
2023-04-17T10:04:22.832Z,1.00
2023-04-17T10:06:51.930Z,1.00
2023-04-17T10:09:18.767Z,1.00
2023-04-17T10:11:46.949Z,1.00
2023-04-17T10:14:32.585Z,1.00
2023-04-17T10:16:59.790Z,1.00
2023-04-17T10:19:34.150Z,1.00
2023-04-17T10:22:16.283Z,1.00
2023-04-17T10:24:43.895Z,1.00
2023-04-17T10:27:26.204Z,1.00
2023-04-17T10:29:54.441Z,1.00
2023-04-17T10:32:24.089Z,1.00
2023-04-17T10:35:14.577Z,1.00
2023-04-17T10:37:50.219Z,1.00
2023-04-17T10:40:24.446Z,1.00
2023-04-17T10:43:07.824Z,1.00
2023-04-17T10:46:08.774Z,1.00
2023-04-17T10:48:39.196Z,1.00
2023-04-17T10:51:24.534Z,1.00
2023-04-17T10:53:59.817Z,1.00
2023-04-17T10:56:40.299Z,1.00
2023-04-17T10:59:09.637Z,1.00
2023-04-17T11:01:48.575Z,1.00
2023-04-17T11:04:22.772Z,1.00
2023-04-17T11:06:54.001Z,1.00
2023-04-17T11:09:22.023Z,1.00
2023-04-17T11:11:48.770Z,1.00
2023-04-17T11:14:18.362Z,1.00
2023-04-17T11:16:48.436Z,1.00
2023-04-17T11:19:21.306Z,1.00
2023-04-17T11:21:50.305Z,1.00
2023-04-17T11:24:26.993Z,1.00
2023-04-17T11:26:54.789Z,1.00
2023-04-17T11:29:23.135Z,1.00
2023-04-17T11:31:52.226Z,1.00
2023-04-17T11:34:19.342Z,1.00
2023-04-17T11:36:57.323Z,1.00
2023-04-17T11:39:30.504Z,1.00
2023-04-17T11:41:57.924Z,1.00
2023-04-17T11:44:25.771Z,1.00
2023-04-17T11:46:54.290Z,1.00
2023-04-17T11:49:32.416Z,1.00
2023-04-17T11:52:04.393Z,1.00
2023-04-17T11:54:38.370Z,1.00
2023-04-17T11:57:15.534Z,1.00
2023-04-17T11:59:42.739Z,1.00
2023-04-17T12:02:10.059Z,1.00
2023-04-17T12:04:39.418Z,1.00
2023-04-17T12:07:07.998Z,1.00
2023-04-17T12:09:35.838Z,1.00
2023-04-17T12:12:07.259Z,1.00
2023-04-17T12:14:34.487Z,1.00
2023-04-17T12:17:02.264Z,1.00
2023-04-17T12:19:29.598Z,1.00
2023-04-17T12:21:57.180Z,1.00
2023-04-17T12:24:25.109Z,1.00
2023-04-17T12:26:52.902Z,1.00
2023-04-17T12:29:26.505Z,1.00
2023-04-17T12:31:59.669Z,1.00
2023-04-17T12:34:27.782Z,1.00
2023-04-17T12:36:54.791Z,1.00
2023-04-17T12:39:21.468Z,1.00
2023-04-17T12:41:48.164Z,1.00
2023-04-17T12:44:14.994Z,1.00
2023-04-17T12:46:42.041Z,1.00
2023-04-17T12:49:09.052Z,1.00
2023-04-17T12:51:37.949Z,1.00
2023-04-17T12:54:04.972Z,1.00
2023-04-17T12:56:32.117Z,1.00
2023-04-17T12:59:01.309Z,1.00
2023-04-17T13:01:29.751Z,1.00
2023-04-17T13:03:56.676Z,1.00
2023-04-17T13:06:23.681Z,1.00
2023-04-17T13:08:50.391Z,1.00
2023-04-17T13:11:17.238Z,1.00
2023-04-17T13:13:43.888Z,1.00
2023-04-17T13:16:10.583Z,1.00
2023-04-17T13:18:37.567Z,1.00
2023-04-17T13:21:04.380Z,1.00
2023-04-17T13:23:31.213Z,1.00
2023-04-17T13:25:57.963Z,1.00
2023-04-17T13:28:24.659Z,1.00
2023-04-17T13:30:52.605Z,1.00
2023-04-17T13:33:19.310Z,1.00
2023-04-17T13:35:45.983Z,1.00
2023-04-17T13:38:12.709Z,1.00
2023-04-17T13:40:40.792Z,1.00
2023-04-17T13:43:07.509Z,1.00
2023-04-17T13:45:34.230Z,1.00
2023-04-17T13:48:01.275Z,1.00
2023-04-17T13:50:28.094Z,1.00
2023-04-17T13:52:54.785Z,1.00
2023-04-17T13:55:21.418Z,1.00
2023-04-17T13:57:48.116Z,1.00
2023-04-17T14:00:15.263Z,1.00
2023-04-17T14:02:42.697Z,1.00
2023-04-17T14:05:10.000Z,1.00
2023-04-17T14:07:37.700Z,1.00
2023-04-17T14:10:04.727Z,1.00
2023-04-17T14:12:31.398Z,1.00
2023-04-17T14:14:58.324Z,1.00
2023-04-17T14:17:25.471Z,1.00
2023-04-17T14:19:52.906Z,1.00
2023-04-17T14:22:20.058Z,1.00
2023-04-17T14:24:46.749Z,1.00
2023-04-17T14:27:13.421Z,1.00
2023-04-17T14:29:40.111Z,1.00
2023-04-17T14:32:06.827Z,1.00
2023-04-17T14:34:33.521Z,1.00
2023-04-17T14:37:00.261Z,1.00
2023-04-17T14:39:30.132Z,1.00
2023-04-17T14:41:59.584Z,1.00
2023-04-17T14:44:27.980Z,1.00
2023-04-17T14:46:56.648Z,1.00
2023-04-17T14:49:23.550Z,1.00
2023-04-17T14:51:50.246Z,1.00
2023-04-17T14:54:16.919Z,1.00
2023-04-17T14:56:43.587Z,1.00
2023-04-17T14:59:10.959Z,1.00
2023-04-17T15:01:37.884Z,1.00
2023-04-17T15:04:05.092Z,1.00
2023-04-17T15:06:32.147Z,1.00
2023-04-17T15:08:58.859Z,1.00
2023-04-17T15:11:25.741Z,1.00
2023-04-17T15:13:52.415Z,1.00
2023-04-17T15:16:19.120Z,1.00
2023-04-17T15:18:45.808Z,1.00
2023-04-17T15:21:15.556Z,1.00
2023-04-17T15:23:42.302Z,1.00
2023-04-17T15:26:09.200Z,1.00
2023-04-17T15:28:36.810Z,1.00
2023-04-17T15:31:03.540Z,1.00
2023-04-17T15:33:30.718Z,1.00
2023-04-17T15:35:58.615Z,1.00
2023-04-17T15:38:25.842Z,1.00
2023-04-17T15:40:52.674Z,1.00
2023-04-17T15:43:19.608Z,1.00
2023-04-17T15:45:48.827Z,1.00
2023-04-17T15:48:15.862Z,1.00
2023-04-17T15:50:43.022Z,1.00
2023-04-17T15:53:09.761Z,1.00
2023-04-17T15:55:36.770Z,1.00
2023-04-17T15:58:03.614Z,1.00
2023-04-17T16:00:30.556Z,1.00
2023-04-17T16:02:57.407Z,1.00
2023-04-17T16:05:24.160Z,1.00
2023-04-17T16:07:50.926Z,1.00
2023-04-17T16:10:18.845Z,1.00
2023-04-17T16:12:46.130Z,1.00
2023-04-17T16:15:16.384Z,1.00
2023-04-17T16:17:43.666Z,1.00
2023-04-17T16:20:11.044Z,1.00
2023-04-17T16:22:37.869Z,1.00
2023-04-17T16:25:05.047Z,1.00
2023-04-17T16:27:32.535Z,1.00
2023-04-17T16:29:59.866Z,1.00
2023-04-17T16:32:27.251Z,1.00
2023-04-17T16:34:54.038Z,1.00
2023-04-17T16:37:20.788Z,1.00
2023-04-17T16:39:47.493Z,1.00
2023-04-17T16:42:14.581Z,1.00
2023-04-17T16:44:41.440Z,1.00
2023-04-17T16:47:13.438Z,1.00
2023-04-17T16:49:41.187Z,1.00
2023-04-17T16:52:07.859Z,1.00
2023-04-17T16:54:34.834Z,1.00
2023-04-17T16:57:02.164Z,1.00
2023-04-17T16:59:28.897Z,1.00
2023-04-17T17:01:55.634Z,1.00
2023-04-17T17:04:22.384Z,1.00
2023-04-17T17:06:49.123Z,1.00
2023-04-17T17:09:15.901Z,1.00
2023-04-17T17:11:42.625Z,1.00
2023-04-17T17:14:09.344Z,1.00
2023-04-17T17:16:36.695Z,1.00
2023-04-17T17:19:03.702Z,1.00
2023-04-17T17:21:31.019Z,1.00
2023-04-17T17:23:57.836Z,1.00
2023-04-17T17:26:25.008Z,1.00
2023-04-17T17:28:53.226Z,1.00
2023-04-17T17:31:20.676Z,1.00
2023-04-17T17:33:50.410Z,1.00
2023-04-17T17:36:17.451Z,1.00
2023-04-17T17:38:44.591Z,1.00
2023-04-17T17:41:11.379Z,1.00
2023-04-17T17:43:38.028Z,1.00
2023-04-17T17:46:04.710Z,1.00
2023-04-17T17:48:31.425Z,1.00
2023-04-17T17:50:58.185Z,1.00
2023-04-17T17:53:26.972Z,1.00
2023-04-17T17:55:55.680Z,1.00
2023-04-17T17:58:22.769Z,1.00
2023-04-17T18:00:50.083Z,1.00
2023-04-17T18:03:17.731Z,1.00
2023-04-17T18:05:46.421Z,1.00
2023-04-17T18:08:13.789Z,1.00
2023-04-17T18:10:40.487Z,1.00
2023-04-17T18:13:07.128Z,1.00
2023-04-17T18:15:33.872Z,1.00
2023-04-17T18:18:00.742Z,1.00
2023-04-17T18:20:27.732Z,1.00
2023-04-17T18:22:54.394Z,1.00
2023-04-17T18:25:21.075Z,1.00
2023-04-17T18:27:47.764Z,1.00
2023-04-17T18:30:15.174Z,1.00
2023-04-17T18:32:41.968Z,1.00
2023-04-17T18:35:08.969Z,1.00
2023-04-17T18:37:35.774Z,1.00
2023-04-17T18:40:03.177Z,1.00
2023-04-17T18:42:29.877Z,1.00
2023-04-17T18:44:56.593Z,1.00
2023-04-17T18:47:23.281Z,1.00
2023-04-17T18:49:52.964Z,1.00
2023-04-17T18:52:19.844Z,1.00
2023-04-17T18:54:46.535Z,1.00
2023-04-17T18:57:13.190Z,1.00
2023-04-17T18:59:42.012Z,1.00
2023-04-17T19:02:09.892Z,1.00
2023-04-17T19:04:36.653Z,1.00
2023-04-17T19:07:03.328Z,1.00
2023-04-17T19:09:30.097Z,1.00
2023-04-17T19:11:57.416Z,1.00
2023-04-17T19:14:24.642Z,1.00
2023-04-17T19:16:51.875Z,1.00
2023-04-17T19:19:18.652Z,1.00
2023-04-17T19:21:45.369Z,1.00
2023-04-17T19:24:12.155Z,1.00
2023-04-17T19:26:38.841Z,1.00
2023-04-17T19:29:05.647Z,1.00
2023-04-17T19:31:33.021Z,1.00
2023-04-17T19:34:00.313Z,1.00
2023-04-17T19:36:28.136Z,1.00
2023-04-17T19:38:55.860Z,1.00
2023-04-17T19:41:22.560Z,1.00
2023-04-17T19:43:53.555Z,1.00
2023-04-17T19:46:21.970Z,1.00
2023-04-17T19:48:49.440Z,1.00
2023-04-17T19:51:16.845Z,1.00
2023-04-17T19:53:44.856Z,1.00
2023-04-17T19:56:11.596Z,1.00
2023-04-17T19:58:40.700Z,1.00
2023-04-17T20:01:07.650Z,1.00
2023-04-17T20:03:35.425Z,1.00
2023-04-17T20:06:03.390Z,1.00
2023-04-17T20:08:30.250Z,1.00
2023-04-17T20:10:56.890Z,1.00
2023-04-17T20:13:23.555Z,1.00
2023-04-17T20:15:50.309Z,1.00
2023-04-17T20:18:17.654Z,1.00
2023-04-17T20:20:44.362Z,1.00
2023-04-17T20:23:11.058Z,1.00
2023-04-17T20:25:37.745Z,1.00
2023-04-17T20:28:04.758Z,1.00
2023-04-17T20:30:31.575Z,1.00
2023-04-17T20:32:58.441Z,1.00
2023-04-17T20:35:25.219Z,1.00
2023-04-17T20:37:52.414Z,1.00
2023-04-17T20:40:19.752Z,1.00
2023-04-17T20:42:47.356Z,1.00
2023-04-17T20:45:14.294Z,1.00
2023-04-17T20:47:55.899Z,1.00
2023-04-17T20:50:24.565Z,1.00
2023-04-17T20:52:51.284Z,1.00
2023-04-17T20:55:19.704Z,1.00
2023-04-17T20:57:46.801Z,1.00
2023-04-17T21:00:14.068Z,1.00
2023-04-17T21:02:40.971Z,1.00
2023-04-17T21:05:09.028Z,1.00
2023-04-17T21:07:36.194Z,1.00
2023-04-17T21:10:02.972Z,1.00
2023-04-17T21:12:29.802Z,1.00
2023-04-17T21:14:56.439Z,1.00
2023-04-17T21:17:23.233Z,1.00
2023-04-17T21:19:50.037Z,1.00
2023-04-17T21:22:16.786Z,1.00
2023-04-17T21:24:43.546Z,1.00
2023-04-17T21:27:10.407Z,1.00
2023-04-17T21:29:37.513Z,1.00
2023-04-17T21:32:04.353Z,1.00
2023-04-17T21:34:31.094Z,1.00
2023-04-17T21:37:02.180Z,1.00
2023-04-17T21:39:32.284Z,1.00
2023-04-17T21:41:59.755Z,1.00
2023-04-17T21:44:26.445Z,1.00
2023-04-17T21:46:53.288Z,1.00
2023-04-17T21:49:20.711Z,1.00
2023-04-17T21:51:47.346Z,1.00
2023-04-17T21:54:14.152Z,1.00
2023-04-17T21:56:41.183Z,1.00
2023-04-17T21:59:07.853Z,1.00
2023-04-17T22:01:34.543Z,1.00
2023-04-17T22:04:02.199Z,1.00
2023-04-17T22:06:28.887Z,1.00
2023-04-17T22:08:55.706Z,1.00
2023-04-17T22:11:23.014Z,1.00
2023-04-17T22:13:49.790Z,1.00
2023-04-17T22:16:16.490Z,1.00
2023-04-17T22:18:43.476Z,1.00
2023-04-17T22:21:12.317Z,1.00
2023-04-17T22:23:39.119Z,1.00
2023-04-17T22:26:05.872Z,1.00
2023-04-17T22:28:32.532Z,1.00
2023-04-17T22:30:59.576Z,1.00
2023-04-17T22:33:26.479Z,1.00
2023-04-17T22:35:53.403Z,1.00
2023-04-17T22:38:21.142Z,1.00
2023-04-17T22:40:48.453Z,1.00
2023-04-17T22:43:15.392Z,1.00
2023-04-17T22:45:42.407Z,1.00
2023-04-17T22:48:09.134Z,1.00
2023-04-17T22:50:37.790Z,1.00
2023-04-17T22:53:04.942Z,1.00
2023-04-17T22:55:31.699Z,1.00
2023-04-17T22:57:59.806Z,1.00
2023-04-17T23:00:26.552Z,1.00
2023-04-17T23:02:53.378Z,1.00
2023-04-17T23:05:20.226Z,1.00
2023-04-17T23:07:47.109Z,1.00
2023-04-17T23:10:13.788Z,1.00
2023-04-17T23:12:40.600Z,1.00
2023-04-17T23:15:08.295Z,1.00
2023-04-17T23:17:35.100Z,1.00
2023-04-17T23:20:02.238Z,1.00
2023-04-17T23:22:28.964Z,1.00
2023-04-17T23:24:56.793Z,1.00
2023-04-17T23:27:23.499Z,1.00
2023-04-17T23:29:50.507Z,1.00
2023-04-17T23:32:17.190Z,1.00
2023-04-17T23:34:43.886Z,1.00
2023-04-17T23:37:10.879Z,1.00
2023-04-17T23:39:37.505Z,1.00
2023-04-17T23:42:07.205Z,1.00
2023-04-17T23:44:36.730Z,1.00
2023-04-17T23:47:03.825Z,1.00
2023-04-17T23:49:30.828Z,1.00
2023-04-17T23:51:57.514Z,1.00
2023-04-17T23:54:24.317Z,1.00
2023-04-17T23:56:51.041Z,1.00
2023-04-17T23:59:18.007Z,1.00
